createdAt,value
2022-11-18T00:01:21.711Z,38.10
2022-11-18T00:03:50.824Z,38.40
2022-11-18T00:06:22.136Z,38.10
2022-11-18T00:08:50.837Z,38.20
2022-11-18T00:11:36.410Z,38.50
2022-11-18T00:14:19.976Z,37.70
2022-11-18T00:16:50.993Z,38.50
2022-11-18T00:19:20.151Z,38.70
2022-11-18T00:21:48.682Z,38.10
2022-11-18T00:24:16.737Z,39.00
2022-11-18T00:26:46.252Z,39.30
2022-11-18T00:29:15.049Z,39.20
2022-11-18T00:31:43.473Z,39.10
2022-11-18T00:34:14.505Z,39.10
2022-11-18T00:36:43.425Z,39.20
2022-11-18T00:39:12.703Z,39.00
2022-11-18T00:41:58.449Z,39.50
2022-11-18T00:44:30.846Z,39.20
2022-11-18T00:46:59.089Z,39.30
2022-11-18T00:49:27.147Z,39.40
2022-11-18T00:51:55.178Z,39.40
2022-11-18T00:54:23.376Z,39.40
2022-11-18T00:56:51.373Z,39.60
2022-11-18T00:59:19.687Z,40.00
2022-11-18T01:01:49.702Z,39.50
2022-11-18T01:04:17.888Z,39.90
2022-11-18T01:06:45.900Z,40.10
2022-11-18T01:09:13.956Z,40.00
2022-11-18T01:11:59.454Z,40.00
2022-11-18T01:14:27.944Z,39.70
2022-11-18T01:16:57.947Z,40.20
2022-11-18T01:19:26.744Z,40.20
2022-11-18T01:21:56.439Z,40.40
2022-11-18T01:24:24.500Z,40.20
2022-11-18T01:26:52.466Z,40.60
2022-11-18T01:29:20.501Z,40.60
2022-11-18T01:32:09.311Z,40.50
2022-11-18T01:34:38.079Z,40.50
2022-11-18T01:37:06.240Z,40.70
2022-11-18T01:39:34.246Z,41.00
2022-11-18T01:42:02.268Z,40.60
2022-11-18T01:45:02.063Z,40.80
2022-11-18T01:47:35.826Z,41.20
2022-11-18T01:50:07.562Z,40.90
2022-11-18T01:52:37.367Z,40.70
2022-11-18T01:55:12.467Z,41.00
2022-11-18T01:57:41.963Z,40.50
2022-11-18T02:00:12.302Z,41.00
2022-11-18T02:02:40.445Z,40.40
2022-11-18T02:05:12.496Z,40.50
2022-11-18T02:07:43.840Z,40.20
2022-11-18T02:10:22.160Z,40.70
2022-11-18T02:12:52.463Z,40.70
2022-11-18T02:15:31.029Z,40.70
2022-11-18T02:18:11.258Z,40.60
2022-11-18T02:20:43.840Z,40.50
2022-11-18T02:23:48.449Z,41.00
2022-11-18T02:26:59.435Z,40.50
2022-11-18T02:29:32.656Z,40.90
2022-11-18T02:32:05.773Z,40.40
2022-11-18T02:34:41.493Z,40.30
2022-11-18T02:37:17.959Z,40.20
2022-11-18T02:39:54.463Z,40.50
2022-11-18T02:42:24.092Z,40.40
2022-11-18T02:44:58.601Z,40.40
2022-11-18T02:47:30.020Z,40.70
2022-11-18T02:50:02.904Z,40.20
2022-11-18T02:52:33.326Z,40.50
2022-11-18T02:55:04.070Z,40.20
2022-11-18T02:57:33.689Z,40.50
2022-11-18T03:00:03.142Z,40.90
2022-11-18T03:02:42.925Z,41.00
2022-11-18T03:05:19.288Z,41.40
2022-11-18T03:07:52.625Z,41.30
2022-11-18T03:10:25.033Z,40.80
2022-11-18T03:13:05.187Z,41.30
2022-11-18T03:15:43.462Z,41.30
2022-11-18T03:18:21.902Z,41.20
2022-11-18T03:20:54.385Z,41.60
2022-11-18T03:23:28.348Z,41.60
2022-11-18T03:26:02.213Z,41.80
2022-11-18T03:28:37.762Z,41.80
2022-11-18T03:31:13.344Z,41.70
2022-11-18T03:33:49.167Z,41.60
2022-11-18T03:36:19.616Z,41.40
2022-11-18T03:38:52.591Z,41.60
2022-11-18T03:41:22.064Z,41.40
2022-11-18T03:43:55.803Z,41.50
2022-11-18T03:46:31.069Z,41.60
2022-11-18T03:49:00.532Z,41.70
2022-11-18T03:51:34.374Z,41.70
2022-11-18T03:54:06.812Z,41.80
2022-11-18T03:56:40.285Z,42.00
2022-11-18T03:59:16.101Z,41.70
2022-11-18T04:01:53.233Z,42.10
2022-11-18T04:04:22.212Z,42.00
2022-11-18T04:06:55.097Z,41.70
2022-11-18T04:09:28.436Z,41.80
2022-11-18T04:12:04.053Z,41.70
2022-11-18T04:14:35.098Z,41.50
2022-11-18T04:17:09.680Z,41.40
2022-11-18T04:19:38.142Z,41.80
2022-11-18T04:22:06.548Z,41.60
2022-11-18T04:24:34.922Z,42.70
2022-11-18T04:27:03.494Z,41.60
2022-11-18T04:29:31.943Z,42.20
2022-11-18T04:32:00.379Z,41.80
2022-11-18T04:34:30.727Z,41.80
2022-11-18T04:36:59.196Z,41.90
2022-11-18T04:39:27.247Z,42.00
2022-11-18T04:41:58.362Z,41.70
2022-11-18T04:44:28.695Z,41.90
2022-11-18T04:46:58.875Z,42.10
2022-11-18T04:49:28.861Z,42.40
2022-11-18T04:51:58.279Z,42.20
2022-11-18T04:54:27.662Z,42.20
2022-11-18T04:56:56.321Z,42.00
2022-11-18T04:59:28.105Z,41.90
2022-11-18T05:01:57.166Z,42.30
2022-11-18T05:04:30.021Z,42.70
2022-11-18T05:06:58.573Z,42.70
2022-11-18T05:09:31.845Z,42.40
2022-11-18T05:12:18.083Z,42.30
2022-11-18T05:14:50.027Z,42.00
2022-11-18T05:17:19.380Z,42.00
2022-11-18T05:19:48.730Z,42.20
2022-11-18T05:22:17.094Z,42.30
2022-11-18T05:24:45.101Z,42.30
2022-11-18T05:27:13.626Z,42.20
2022-11-18T05:29:41.663Z,42.00
2022-11-18T05:32:09.699Z,42.20
2022-11-18T05:34:37.878Z,42.50
2022-11-18T05:37:07.238Z,42.20
2022-11-18T05:39:35.503Z,42.40
2022-11-18T05:42:21.880Z,42.80
2022-11-18T05:44:56.210Z,42.30
2022-11-18T05:47:26.116Z,42.10
2022-11-18T05:49:54.189Z,43.00
2022-11-18T05:52:23.590Z,42.90
2022-11-18T05:54:52.513Z,42.70
2022-11-18T05:57:20.664Z,42.80
2022-11-18T05:59:48.719Z,43.00
2022-11-18T06:02:22.442Z,42.80
2022-11-18T06:04:54.870Z,42.60
2022-11-18T06:07:29.029Z,42.50
2022-11-18T06:10:05.127Z,43.20
2022-11-18T06:12:39.656Z,42.80
2022-11-18T06:15:14.685Z,42.40
2022-11-18T06:17:47.262Z,43.20
2022-11-18T06:20:17.178Z,43.00
2022-11-18T06:22:46.942Z,43.30
2022-11-18T06:25:15.937Z,43.40
2022-11-18T06:27:44.854Z,43.50
2022-11-18T06:30:14.612Z,43.30
2022-11-18T06:32:42.874Z,43.50
2022-11-18T06:35:11.795Z,43.30
2022-11-18T06:37:39.839Z,43.50
2022-11-18T06:40:11.481Z,43.40
2022-11-18T06:42:57.350Z,43.20
2022-11-18T06:45:25.450Z,43.00
2022-11-18T06:47:56.606Z,43.50
2022-11-18T06:50:24.721Z,43.50
2022-11-18T06:52:52.918Z,43.70
2022-11-18T06:55:22.357Z,43.30
2022-11-18T06:57:50.331Z,42.90
2022-11-18T07:00:19.643Z,43.20
2022-11-18T07:02:47.674Z,43.30
2022-11-18T07:05:15.850Z,43.50
2022-11-18T07:07:43.937Z,43.40
2022-11-18T07:10:12.218Z,43.50
2022-11-18T07:12:41.559Z,43.10
2022-11-18T07:15:10.973Z,42.90
2022-11-18T07:17:38.982Z,43.50
2022-11-18T07:20:08.604Z,43.20
2022-11-18T07:22:36.574Z,42.50
2022-11-18T07:25:04.864Z,42.30
2022-11-18T07:27:32.822Z,41.20
2022-11-18T07:30:02.173Z,41.60
2022-11-18T07:32:30.129Z,41.10
2022-11-18T07:34:58.178Z,41.30
2022-11-18T07:37:26.221Z,41.20
2022-11-18T07:39:54.166Z,40.60
2022-11-18T07:42:22.121Z,40.80
2022-11-18T07:44:50.094Z,40.60
2022-11-18T07:47:19.439Z,40.80
2022-11-18T07:49:47.382Z,40.70
2022-11-18T07:52:15.382Z,40.40
2022-11-18T07:54:43.364Z,40.60
2022-11-18T07:57:11.363Z,40.30
2022-11-18T07:59:39.333Z,40.20
2022-11-18T08:02:07.741Z,40.20
2022-11-18T08:04:38.707Z,40.60
2022-11-18T08:07:06.862Z,40.10
2022-11-18T08:09:34.908Z,40.70
2022-11-18T08:12:02.938Z,40.50
2022-11-18T08:14:30.952Z,40.40
2022-11-18T08:16:58.956Z,40.40
2022-11-18T08:19:27.030Z,39.70
2022-11-18T08:21:56.397Z,32.20
2022-11-18T08:24:24.663Z,32.10
2022-11-18T08:26:52.670Z,35.00
2022-11-18T08:29:25.073Z,38.50
2022-11-18T08:31:54.576Z,36.20
2022-11-18T08:34:22.613Z,34.60
2022-11-18T08:36:50.629Z,34.10
2022-11-18T08:39:20.189Z,34.70
2022-11-18T08:41:48.909Z,34.60
2022-11-18T08:44:18.141Z,34.60
2022-11-18T08:46:46.970Z,33.90
2022-11-18T08:49:15.091Z,34.20
2022-11-18T08:51:43.229Z,35.10
2022-11-18T08:54:11.325Z,35.60
2022-11-18T08:56:40.659Z,35.40
2022-11-18T08:59:09.124Z,35.20
2022-11-18T09:01:37.726Z,35.30
2022-11-18T09:04:06.151Z,33.30
2022-11-18T09:06:34.940Z,33.20
2022-11-18T09:09:06.309Z,32.80
2022-11-18T09:11:35.341Z,32.80
2022-11-18T09:16:52.930Z,32.70
2022-11-18T09:22:10.149Z,29.90
2022-11-18T09:24:38.202Z,27.80
2022-11-18T09:27:12.171Z,28.00
2022-11-18T09:29:44.728Z,28.40
2022-11-18T09:32:12.886Z,27.90
2022-11-18T09:34:40.948Z,28.50
2022-11-18T09:37:08.990Z,28.50
2022-11-18T09:39:37.716Z,28.40
2022-11-18T09:42:23.653Z,28.90
2022-11-18T09:45:24.535Z,29.10
2022-11-18T09:47:53.010Z,30.70
2022-11-18T09:53:20.661Z,31.20
2022-11-18T09:55:50.217Z,31.50
2022-11-18T09:58:23.154Z,30.70
2022-11-18T10:00:52.658Z,30.10
2022-11-18T10:03:28.795Z,29.50
2022-11-18T10:06:03.489Z,29.70
2022-11-18T10:08:36.944Z,29.60
2022-11-18T10:11:13.018Z,29.70
2022-11-18T10:13:55.350Z,29.60
2022-11-18T10:16:37.461Z,29.90
2022-11-18T10:19:21.439Z,30.20
2022-11-18T10:22:02.002Z,30.20
2022-11-18T10:24:36.522Z,30.30
2022-11-18T10:27:12.865Z,30.30
2022-11-18T10:29:41.151Z,26.20
2022-11-18T10:32:15.484Z,25.70
2022-11-18T10:34:50.870Z,26.30
2022-11-18T10:38:00.276Z,27.90
2022-11-18T10:40:27.256Z,28.20
2022-11-18T10:42:55.869Z,27.90
2022-11-18T10:45:28.771Z,27.60
2022-11-18T10:48:08.866Z,27.40
2022-11-18T10:50:39.777Z,27.70
2022-11-18T10:53:30.610Z,27.50
2022-11-18T10:56:00.889Z,27.80
2022-11-18T10:58:32.401Z,28.40
2022-11-18T11:01:07.884Z,27.40
2022-11-18T11:03:39.817Z,28.10
2022-11-18T11:06:37.346Z,28.50
2022-11-18T11:09:27.169Z,28.10
2022-11-18T11:12:04.091Z,28.80
2022-11-18T11:14:38.909Z,28.70
2022-11-18T11:17:12.682Z,29.10
2022-11-18T11:19:56.616Z,29.20
2022-11-18T11:22:24.623Z,29.20
2022-11-18T11:24:52.702Z,29.10
2022-11-18T11:30:48.166Z,28.90
2022-11-18T11:33:27.723Z,28.40
2022-11-18T11:36:10.526Z,28.90
2022-11-18T11:38:58.657Z,28.80
2022-11-18T11:41:33.657Z,28.90
2022-11-18T11:44:28.757Z,28.70
2022-11-18T11:47:32.190Z,28.80
2022-11-18T11:50:04.859Z,28.80
2022-11-18T11:52:45.694Z,29.10
2022-11-18T11:55:24.210Z,28.80
2022-11-18T11:58:14.105Z,28.80
2022-11-18T12:00:46.363Z,29.10
2022-11-18T12:03:39.429Z,28.70
2022-11-18T12:06:10.153Z,29.10
2022-11-18T12:08:49.531Z,28.80
2022-11-18T12:11:27.557Z,29.30
2022-11-18T12:14:02.957Z,29.10
2022-11-18T12:16:38.558Z,28.90
2022-11-18T12:19:13.211Z,28.70
2022-11-18T12:21:58.037Z,29.30
2022-11-18T12:24:37.577Z,29.50
2022-11-18T12:27:13.075Z,28.90
2022-11-18T12:29:56.111Z,29.40
2022-11-18T12:32:34.688Z,28.60
2022-11-18T12:35:06.998Z,29.10
2022-11-18T12:38:01.438Z,29.40
2022-11-18T12:40:42.459Z,29.20
2022-11-18T12:44:06.497Z,29.30
2022-11-18T12:46:52.590Z,29.00
2022-11-18T12:50:13.277Z,29.20
2022-11-18T12:53:03.435Z,29.00
2022-11-18T12:55:34.286Z,28.90
2022-11-18T12:58:03.714Z,29.30
2022-11-18T13:00:52.272Z,28.30
2022-11-18T13:03:28.626Z,28.50
2022-11-18T13:06:03.564Z,28.70
2022-11-18T13:08:32.161Z,28.50
2022-11-18T13:11:28.051Z,28.40
2022-11-18T13:14:11.631Z,28.70
2022-11-18T13:16:58.062Z,28.20
2022-11-18T13:19:26.851Z,28.70
2022-11-18T13:22:13.686Z,29.10
2022-11-18T13:24:46.983Z,28.80
2022-11-18T13:27:43.353Z,28.40
2022-11-18T13:30:15.190Z,28.70
2022-11-18T13:32:45.918Z,28.10
2022-11-18T13:35:17.752Z,28.70
2022-11-18T13:37:55.207Z,28.80
2022-11-18T13:40:27.373Z,28.70
2022-11-18T13:42:55.639Z,28.20
2022-11-18T13:45:29.368Z,28.30
2022-11-18T13:48:03.115Z,28.30
2022-11-18T13:50:36.040Z,28.20
2022-11-18T13:53:15.512Z,28.40
2022-11-18T13:55:49.527Z,28.50
2022-11-18T13:59:02.602Z,28.90
2022-11-18T14:01:30.981Z,28.90
2022-11-18T14:04:01.898Z,28.50
2022-11-18T14:06:32.481Z,28.50
2022-11-18T14:09:18.402Z,28.60
2022-11-18T14:11:58.865Z,28.00
2022-11-18T14:14:33.169Z,28.20
2022-11-18T14:17:19.171Z,28.40
2022-11-18T14:19:49.063Z,28.20
2022-11-18T14:22:21.336Z,27.90
2022-11-18T14:25:01.565Z,28.40
2022-11-18T14:27:38.647Z,28.30
2022-11-18T14:30:32.921Z,28.40
2022-11-18T14:33:22.033Z,28.40
2022-11-18T14:35:53.546Z,28.30
2022-11-18T14:41:16.079Z,28.40
2022-11-18T14:43:45.895Z,28.30
2022-11-18T14:46:17.780Z,28.40
2022-11-18T14:48:47.779Z,28.50
2022-11-18T14:51:17.315Z,28.50
2022-11-18T14:53:45.905Z,28.20
2022-11-18T14:56:21.661Z,28.50
2022-11-18T14:58:49.679Z,28.70
2022-11-18T15:01:17.800Z,28.20
2022-11-18T15:03:47.252Z,28.30
2022-11-18T15:06:16.093Z,28.20
2022-11-18T15:08:46.194Z,28.70
2022-11-18T15:11:14.754Z,28.70
2022-11-18T15:13:43.641Z,28.70
2022-11-18T15:16:15.672Z,28.80
2022-11-18T15:18:45.343Z,29.10
2022-11-18T15:21:15.723Z,29.30
2022-11-18T15:23:44.082Z,29.30
2022-11-18T15:26:19.836Z,29.10
2022-11-18T15:28:48.488Z,29.50
2022-11-18T15:31:17.183Z,29.40
2022-11-18T15:33:46.177Z,29.50
2022-11-18T15:36:17.935Z,29.80
2022-11-18T15:38:47.858Z,29.50
2022-11-18T15:41:21.010Z,29.80
2022-11-18T15:43:50.137Z,29.60
2022-11-18T15:46:20.461Z,29.70
2022-11-18T15:48:49.128Z,29.40
2022-11-18T15:51:18.634Z,29.80
2022-11-18T15:53:46.735Z,29.70
2022-11-18T15:56:17.036Z,29.50
2022-11-18T15:58:45.343Z,29.90
2022-11-18T16:01:13.360Z,29.80
2022-11-18T16:03:41.306Z,29.40
2022-11-18T16:06:09.595Z,29.80
2022-11-18T16:08:39.017Z,29.90
2022-11-18T16:11:25.165Z,29.70
2022-11-18T16:13:53.177Z,29.80
2022-11-18T16:16:21.802Z,29.80
2022-11-18T16:18:49.886Z,29.90
2022-11-18T16:21:17.906Z,29.70
2022-11-18T16:23:47.619Z,29.70
2022-11-18T16:26:17.436Z,29.60
2022-11-18T16:28:45.681Z,29.40
2022-11-18T16:31:31.720Z,30.00
2022-11-18T16:33:59.736Z,29.90
2022-11-18T16:36:28.442Z,30.00
2022-11-18T16:38:58.050Z,30.20
2022-11-18T16:41:32.159Z,30.00
2022-11-18T16:44:03.226Z,30.00
2022-11-18T16:46:33.992Z,30.40
2022-11-18T16:49:02.340Z,30.40
2022-11-18T16:51:31.759Z,30.30
2022-11-18T16:54:03.278Z,30.70
2022-11-18T16:56:35.336Z,30.40
2022-11-18T16:59:06.514Z,31.10
2022-11-18T17:01:35.025Z,30.90
2022-11-18T17:04:03.131Z,31.00
2022-11-18T17:06:32.891Z,31.10
2022-11-18T17:09:02.552Z,31.60
2022-11-18T17:11:31.616Z,31.20
2022-11-18T17:13:59.662Z,31.20
2022-11-18T17:16:28.831Z,31.70
2022-11-18T17:18:59.761Z,31.60
2022-11-18T17:21:29.475Z,31.80
2022-11-18T17:23:58.866Z,31.70
2022-11-18T17:26:29.051Z,32.10
2022-11-18T17:28:57.861Z,32.00
2022-11-18T17:31:26.883Z,31.90
2022-11-18T17:33:56.651Z,32.60
2022-11-18T17:36:27.869Z,32.60
2022-11-18T17:38:57.949Z,32.70
2022-11-18T17:41:46.973Z,32.60
2022-11-18T17:44:17.842Z,32.70
2022-11-18T17:46:47.057Z,33.00
2022-11-18T17:49:17.873Z,33.30
2022-11-18T17:51:46.946Z,32.90
2022-11-18T17:54:15.325Z,33.10
2022-11-18T17:56:44.754Z,33.60
2022-11-18T17:59:14.390Z,33.00
2022-11-18T18:01:42.572Z,33.30
2022-11-18T18:04:10.808Z,33.50
2022-11-18T18:06:38.804Z,33.10
2022-11-18T18:09:06.972Z,33.40
2022-11-18T18:11:34.991Z,33.60
2022-11-18T18:14:12.380Z,33.40
2022-11-18T18:16:43.271Z,33.40
2022-11-18T18:19:14.171Z,33.40
2022-11-18T18:21:42.583Z,33.70
2022-11-18T18:24:11.774Z,33.40
2022-11-18T18:26:40.184Z,33.40
2022-11-18T18:29:09.636Z,33.00
2022-11-18T18:31:38.261Z,33.10
2022-11-18T18:34:06.438Z,32.70
2022-11-18T18:36:34.660Z,32.50
2022-11-18T18:39:02.832Z,32.40
2022-11-18T18:41:32.195Z,32.60
2022-11-18T18:44:00.640Z,32.10
2022-11-18T18:46:31.737Z,32.50
2022-11-18T18:49:03.836Z,32.30
2022-11-18T18:51:36.019Z,32.70
2022-11-18T18:54:05.156Z,33.10
2022-11-18T18:56:33.727Z,33.70
2022-11-18T18:59:01.891Z,33.70
2022-11-18T19:01:31.627Z,33.30
2022-11-18T19:04:02.575Z,34.20
2022-11-18T19:06:56.745Z,34.20
2022-11-18T19:09:22.397Z,34.70
2022-11-18T19:12:08.227Z,34.10
2022-11-18T19:14:36.348Z,34.80
2022-11-18T19:17:10.626Z,34.20
2022-11-18T19:19:58.418Z,35.20
2022-11-18T19:22:27.015Z,35.30
2022-11-18T19:24:55.457Z,35.00
2022-11-18T19:27:24.426Z,35.20
2022-11-18T19:29:52.607Z,35.10
2022-11-18T19:32:22.147Z,33.90
2022-11-18T19:34:50.087Z,34.80
2022-11-18T19:37:18.065Z,34.70
2022-11-18T19:39:46.000Z,34.80
2022-11-18T19:42:14.121Z,34.80
2022-11-18T19:44:42.124Z,34.90
2022-11-18T19:47:10.106Z,33.80
2022-11-18T19:49:39.544Z,34.10
2022-11-18T19:52:07.570Z,33.50
2022-11-18T19:54:35.660Z,35.00
2022-11-18T19:57:03.794Z,33.20
2022-11-18T19:59:32.136Z,34.90
2022-11-18T20:02:00.152Z,34.70
2022-11-18T20:04:28.292Z,34.70
2022-11-18T20:06:57.802Z,34.70
2022-11-18T20:09:26.338Z,34.60
2022-11-18T20:11:54.321Z,33.80
2022-11-18T20:14:22.311Z,34.70
2022-11-18T20:16:51.500Z,34.80
2022-11-18T20:19:19.636Z,33.50
2022-11-18T20:21:49.339Z,35.00
2022-11-18T20:24:19.826Z,34.60
2022-11-18T20:26:48.576Z,35.00
2022-11-18T20:29:16.995Z,34.90
2022-11-18T20:31:45.500Z,34.30
2022-11-18T20:34:15.082Z,34.90
2022-11-18T20:36:43.658Z,34.00
2022-11-18T20:39:18.817Z,34.50
2022-11-18T20:42:11.343Z,34.70
2022-11-18T20:44:39.304Z,35.30
2022-11-18T20:47:07.365Z,35.50
2022-11-18T20:49:35.395Z,34.20
2022-11-18T20:52:03.327Z,35.40
2022-11-18T20:54:33.654Z,35.20
2022-11-18T20:57:01.740Z,33.70
2022-11-18T20:59:29.729Z,34.50
2022-11-18T21:01:57.725Z,34.90
2022-11-18T21:04:25.687Z,35.30
2022-11-18T21:06:58.681Z,34.50
2022-11-18T21:09:27.640Z,35.50
2022-11-18T21:11:56.903Z,35.50
2022-11-18T21:14:25.802Z,35.00
2022-11-18T21:16:55.099Z,35.30
2022-11-18T21:19:23.456Z,35.90
2022-11-18T21:21:52.906Z,36.30
2022-11-18T21:24:22.962Z,36.20
2022-11-18T21:26:54.854Z,36.30
2022-11-18T21:29:28.168Z,36.00
2022-11-18T21:31:56.593Z,36.90
2022-11-18T21:34:25.194Z,36.40
2022-11-18T21:36:55.204Z,36.50
2022-11-18T21:39:24.887Z,36.70
2022-11-18T21:41:56.613Z,36.50
2022-11-18T21:44:27.752Z,36.80
2022-11-18T21:46:56.401Z,36.50
2022-11-18T21:49:24.411Z,37.00
2022-11-18T21:51:52.404Z,36.70
2022-11-18T21:54:20.354Z,36.40
2022-11-18T21:56:48.334Z,36.70
2022-11-18T21:59:17.030Z,36.50
2022-11-18T22:01:46.740Z,36.70
2022-11-18T22:04:34.707Z,36.80
2022-11-18T22:07:02.932Z,36.70
2022-11-18T22:09:36.164Z,37.00
2022-11-18T22:12:07.668Z,36.70
2022-11-18T22:14:36.019Z,36.20
2022-11-18T22:17:06.209Z,36.10
2022-11-18T22:19:34.420Z,36.80
2022-11-18T22:22:03.011Z,37.00
2022-11-18T22:24:31.110Z,37.00
2022-11-18T22:26:59.062Z,36.30
2022-11-18T22:29:27.102Z,36.70
2022-11-18T22:31:55.090Z,36.40
2022-11-18T22:34:24.448Z,36.10
2022-11-18T22:36:52.533Z,36.50
2022-11-18T22:39:21.109Z,36.90
2022-11-18T22:42:06.816Z,36.60
2022-11-18T22:44:34.838Z,37.00
2022-11-18T22:47:02.856Z,36.60
2022-11-18T22:49:32.249Z,36.60
2022-11-18T22:52:00.434Z,36.30
2022-11-18T22:54:38.889Z,36.60
2022-11-18T22:57:07.856Z,36.80
2022-11-18T22:59:35.857Z,36.30
2022-11-18T23:02:03.915Z,36.30
2022-11-18T23:04:33.234Z,35.80
2022-11-18T23:07:01.413Z,36.70
2022-11-18T23:09:29.505Z,36.70
2022-11-18T23:12:15.324Z,36.60
2022-11-18T23:14:43.349Z,36.60
2022-11-18T23:17:11.389Z,35.90
2022-11-18T23:19:43.485Z,35.90
2022-11-18T23:22:11.902Z,36.40
2022-11-18T23:24:40.119Z,36.10
2022-11-18T23:27:08.289Z,36.70
2022-11-18T23:29:36.407Z,37.00
2022-11-18T23:32:04.919Z,36.70
2022-11-18T23:34:32.964Z,36.80
2022-11-18T23:37:02.317Z,36.90
2022-11-18T23:39:30.255Z,36.90
2022-11-18T23:41:58.270Z,36.80
2022-11-18T23:44:40.219Z,37.10
2022-11-18T23:47:08.250Z,36.80
2022-11-18T23:49:36.192Z,36.70
2022-11-18T23:52:05.852Z,36.90
2022-11-18T23:54:33.847Z,37.00
2022-11-18T23:57:04.257Z,36.80
2022-11-18T23:59:32.747Z,36.70
